Time;durP1;ratioP1;P1;durP2;ratioP2;P2;SDS_P1;SDS_P2;PMS_P1;PMS_P2;Temp;Humidity;BMP_temperature;BMP_pressure;BME280_temperature;BME280_humidity;BME280_pressure;Samples;Min_cycle;Max_cycle;Signal;HPM_P1;HPM_P2
2023/10/02 00:00:00;;;;;;;;;;;;;;;8.76;87.20;101146.11;107659;275;120443;-54
2023/10/02 00:02:44;;;;;;;;;;;;;;;8.76;87.33;101149.91;107645;275;105644;-54
2023/10/02 00:05:40;;;;;;;;;;;;;;;8.75;87.24;101148.23;107616;275;114984;-54
2023/10/02 00:08:31;;;;;;;;;;;;;;;8.73;87.40;101144.70;107594;275;97371;-55
2023/10/02 00:17:00;;;;;;;;;;;;;;;8.77;87.39;101142.02;107697;275;106226;-56
2023/10/02 00:19:35;;;;;;;;;;;;;;;8.76;87.59;101142.05;107490;275;116524;-56
2023/10/02 00:22:34;;;;;;;;;;;;;;;8.72;87.64;101142.16;107666;275;97928;-53
2023/10/02 00:25:07;;;;;;;;;;;;;;;8.71;87.83;101144.73;107669;275;97631;-54
2023/10/02 00:27:46;;;;;;;;;;;;;;;8.73;87.77;101143.05;107651;275;121465;-56
2023/10/02 00:30:34;;;;;;;;;;;;;;;8.75;87.77;101138.00;107672;275;104488;-58
2023/10/02 00:33:11;;;;;;;;;;;;;;;8.75;87.84;101138.23;108061;275;112014;-57
2023/10/02 00:35:52;;;;;;;;;;;;;;;8.75;87.91;101135.34;107913;275;97049;-57
2023/10/02 00:38:24;;;;;;;;;;;;;;;8.71;87.77;101132.33;108061;275;95768;-59
2023/10/02 00:40:57;;;;;;;;;;;;;;;8.69;87.86;101126.77;107885;275;120715;-53
2023/10/02 00:43:45;;;;;;;;;;;;;;;8.70;87.96;101126.56;107655;275;106399;-54
2023/10/02 00:46:24;;;;;;;;;;;;;;;8.71;87.97;101131.20;107653;275;113403;-57
2023/10/02 00:48:58;;;;;;;;;;;;;;;8.76;88.14;101130.70;107494;275;95968;-56
2023/10/02 00:51:34;;;;;;;;;;;;;;;8.80;88.18;101131.23;107706;269;96732;-58
2023/10/02 00:54:23;;;;;;;;;;;;;;;8.83;88.10;101131.23;107649;275;122923;-56
2023/10/02 00:57:11;;;;;;;;;;;;;;;8.84;88.25;101130.58;107650;275;106068;-55
2023/10/02 00:59:59;;;;;;;;;;;;;;;8.83;88.29;101131.81;107654;275;112425;-54
2023/10/02 01:02:35;;;;;;;;;;;;;;;8.79;88.39;101137.45;107693;275;94801;-57
2023/10/02 01:05:30;;;;;;;;;;;;;;;8.77;88.40;101137.27;107680;275;98237;-57
2023/10/02 01:08:03;;;;;;;;;;;;;;;8.75;88.35;101140.31;108160;275;121077;-59
2023/10/02 01:10:40;;;;;;;;;;;;;;;8.74;88.30;101145.88;108103;275;108157;-59
2023/10/02 01:13:17;;;;;;;;;;;;;;;8.72;88.23;101144.65;108349;275;113706;-59
2023/10/02 01:15:49;;;;;;;;;;;;;;;8.71;88.38;101148.30;108165;275;95401;-58
2023/10/02 01:18:27;;;;;;;;;;;;;;;8.71;88.43;101151.34;108189;275;96600;-58
2023/10/02 01:21:00;;;;;;;;;;;;;;;8.69;88.37;101147.77;108143;275;124804;-58
2023/10/02 01:23:34;;;;;;;;;;;;;;;8.68;88.41;101146.51;108308;275;103443;-59
2023/10/02 01:26:12;;;;;;;;;;;;;;;8.66;88.41;101146.30;108050;275;114186;-57
2023/10/02 01:28:51;;;;;;;;;;;;;;;8.69;88.40;101142.95;107683;268;96478;-56
2023/10/02 01:31:36;;;;;;;;;;;;;;;8.73;88.48;101141.52;108024;275;97510;-58
2023/10/02 01:34:33;;;;;;;;;;;;;;;8.77;88.50;101139.62;108119;275;121148;-58
2023/10/02 01:37:32;;;;;;;;;;;;;;;8.79;88.62;101138.35;108101;275;105655;-58
2023/10/02 01:43:11;;;;;;;;;;;;;;;8.73;88.57;101133.19;107657;275;95783;-54
2023/10/02 01:45:56;;;;;;;;;;;;;;;8.75;88.58;101139.95;107638;275;96653;-56
2023/10/02 01:48:40;;;;;;;;;;;;;;;8.77;88.71;101142.99;107626;275;122381;-57
2023/10/02 01:51:20;;;;;;;;;;;;;;;8.76;88.72;101143.46;107706;275;105428;-53
2023/10/02 01:53:54;;;;;;;;;;;;;;;8.74;88.68;101144.43;107650;275;115697;-53
2023/10/02 01:56:29;;;;;;;;;;;;;;;8.71;88.55;101148.83;107680;275;96590;-54
2023/10/02 01:59:09;;;;;;;;;;;;;;;8.72;88.60;101153.55;107599;275;96876;-53
2023/10/02 02:01:51;;;;;;;;;;;;;;;8.77;88.82;101159.73;107472;275;122260;-55
2023/10/02 02:04:32;;;;;;;;;;;;;;;8.83;89.00;101159.93;107657;275;105475;-55
2023/10/02 02:07:20;;;;;;;;;;;;;;;8.89;89.17;101160.61;107652;275;114371;-55
2023/10/02 02:10:01;;;;;;;;;;;;;;;8.98;89.30;101161.67;107664;275;96605;-56
2023/10/02 02:12:45;;;;;;;;;;;;;;;9.10;89.49;101162.95;107632;275;97375;-57
2023/10/02 02:15:20;;;;;;;;;;;;;;;9.18;89.80;101159.17;107667;275;121119;-58
2023/10/02 02:17:53;;;;;;;;;;;;;;;9.27;89.76;101162.51;108036;275;105007;-58
2023/10/02 02:23:21;;;;;;;;;;;;;;;9.43;90.07;101159.64;107652;275;96654;-54
2023/10/02 02:26:00;;;;;;;;;;;;;;;9.53;89.94;101159.58;107655;275;97544;-53
2023/10/02 02:28:43;;;;;;;;;;;;;;;9.62;90.06;101160.68;107637;275;122005;-54
2023/10/02 02:31:29;;;;;;;;;;;;;;;9.73;90.00;101163.48;107672;275;105654;-57
2023/10/02 02:34:03;;;;;;;;;;;;;;;9.83;90.17;101162.38;107640;275;115364;-56
2023/10/02 02:36:35;;;;;;;;;;;;;;;9.89;90.27;101162.56;107960;275;96301;-58
2023/10/02 02:39:15;;;;;;;;;;;;;;;9.97;90.23;101169.45;108075;275;96886;-59
2023/10/02 02:41:48;;;;;;;;;;;;;;;10.03;90.43;101166.79;107598;275;120880;-54
2023/10/02 02:44:39;;;;;;;;;;;;;;;10.09;90.29;101164.40;107646;275;106380;-54
2023/10/02 02:47:16;;;;;;;;;;;;;;;10.16;90.43;101169.58;107956;275;113479;-58
2023/10/02 02:49:51;;;;;;;;;;;;;;;10.22;90.52;101163.67;107950;275;96284;-58
2023/10/02 02:52:24;;;;;;;;;;;;;;;10.30;90.39;101166.38;107526;275;98863;-53
2023/10/02 02:55:05;;;;;;;;;;;;;;;10.37;90.57;101167.80;107641;275;121776;-54
2023/10/02 02:57:38;;;;;;;;;;;;;;;10.44;90.47;101160.35;107644;275;105130;-55
2023/10/02 03:00:29;;;;;;;;;;;;;;;10.48;90.32;101160.56;107482;275;114630;-54
2023/10/02 03:03:29;;;;;;;;;;;;;;;10.52;90.33;101163.19;107673;275;97165;-53
2023/10/02 03:06:17;;;;;;;;;;;;;;;10.57;90.17;101167.80;107657;275;96961;-53
2023/10/02 03:08:47;;;;;;;;;;;;;;;10.60;90.25;101168.43;107631;275;122315;-54
2023/10/02 03:11:20;;;;;;;;;;;;;;;10.64;90.29;101165.64;107687;275;105191;-57
2023/10/02 03:14:11;;;;;;;;;;;;;;;10.67;90.40;101164.72;107646;275;113818;-57
2023/10/02 03:16:51;;;;;;;;;;;;;;;10.70;90.31;101166.05;107642;275;96163;-57
2023/10/02 03:19:29;;;;;;;;;;;;;;;10.74;90.58;101158.64;107672;275;98003;-58
2023/10/02 03:22:02;;;;;;;;;;;;;;;10.77;90.44;101156.64;107682;275;122122;-58
2023/10/02 03:24:40;;;;;;;;;;;;;;;10.81;90.46;101159.36;107683;275;105275;-57
2023/10/02 03:27:17;;;;;;;;;;;;;;;10.86;90.55;101156.14;107638;275;115634;-53
2023/10/02 03:29:53;;;;;;;;;;;;;;;10.92;90.37;101160.64;107658;275;94957;-55
2023/10/02 03:32:44;;;;;;;;;;;;;;;10.96;90.46;101162.02;107667;275;97339;-54
2023/10/02 03:35:21;;;;;;;;;;;;;;;10.99;90.38;101162.33;107681;275;121138;-56
2023/10/02 03:37:55;;;;;;;;;;;;;;;11.04;90.43;101158.55;107639;275;105366;-55
2023/10/02 03:40:27;;;;;;;;;;;;;;;11.06;90.51;101155.84;107669;275;113454;-58
2023/10/02 03:43:18;;;;;;;;;;;;;;;11.08;90.49;101158.23;107831;275;96252;-58
2023/10/02 03:45:51;;;;;;;;;;;;;;;11.11;90.42;101155.59;107880;275;97643;-58
2023/10/02 03:48:28;;;;;;;;;;;;;;;11.14;90.43;101156.64;107876;275;122444;-58
2023/10/02 03:51:04;;;;;;;;;;;;;;;11.16;90.39;101155.02;107840;275;106286;-58
2023/10/02 03:53:38;;;;;;;;;;;;;;;11.16;90.43;101151.89;107870;275;112894;-58
2023/10/02 03:59:00;;;;;;;;;;;;;;;11.11;90.45;101151.46;106943;275;786715;-54
2023/10/02 04:01:34;;;;;;;;;;;;;;;11.07;90.45;101148.85;107644;275;121735;-57
2023/10/02 04:04:19;;;;;;;;;;;;;;;11.02;90.19;101152.69;107653;275;105355;-57
2023/10/02 04:06:57;;;;;;;;;;;;;;;10.98;90.32;101157.13;107658;275;114183;-53
2023/10/02 04:09:36;;;;;;;;;;;;;;;10.96;90.15;101150.14;107624;275;96215;-52
2023/10/02 04:12:12;;;;;;;;;;;;;;;10.91;90.43;101145.86;107782;275;97352;-59
2023/10/02 04:14:43;;;;;;;;;;;;;;;10.87;90.33;101143.56;107855;275;121700;-58
2023/10/02 04:17:20;;;;;;;;;;;;;;;10.82;90.13;101148.86;107642;275;105975;-56
2023/10/02 04:20:04;;;;;;;;;;;;;;;10.75;90.11;101152.66;107639;275;114815;-54
2023/10/02 04:22:41;;;;;;;;;;;;;;;10.71;90.16;101160.92;107603;275;96948;-54
2023/10/02 04:25:14;;;;;;;;;;;;;;;10.63;90.09;101160.81;107681;275;95780;-55
2023/10/02 04:28:01;;;;;;;;;;;;;;;10.56;90.10;101158.99;107674;275;122309;-57
2023/10/02 04:30:37;;;;;;;;;;;;;;;10.45;90.08;101156.04;107656;275;105872;-53
2023/10/02 04:33:18;;;;;;;;;;;;;;;10.36;90.07;101159.55;107623;275;114394;-54
2023/10/02 04:35:57;;;;;;;;;;;;;;;10.29;90.01;101162.02;107660;275;96312;-53
2023/10/02 04:38:49;;;;;;;;;;;;;;;10.20;90.13;101158.67;107688;275;97395;-55
2023/10/02 04:42:08;;;;;;;;;;;;;;;10.14;90.15;101165.29;107700;275;121579;-57
2023/10/02 04:44:43;;;;;;;;;;;;;;;10.08;90.24;101167.34;107751;275;105464;-56
2023/10/02 04:47:19;;;;;;;;;;;;;;;10.07;90.28;101171.89;107673;275;114853;-57
2023/10/02 04:55:31;;;;;;;;;;;;;;;10.16;90.61;101164.55;107668;275;121358;-56
2023/10/02 04:58:08;;;;;;;;;;;;;;;10.24;90.80;101166.41;107442;275;107164;-56
2023/10/02 05:01:18;;;;;;;;;;;;;;;10.34;90.99;101169.35;107721;275;113368;-58
2023/10/02 05:03:49;;;;;;;;;;;;;;;10.44;91.04;101164.45;107794;275;96295;-58
2023/10/02 05:06:52;;;;;;;;;;;;;;;10.52;91.01;101158.84;107729;275;96468;-54
2023/10/02 05:09:32;;;;;;;;;;;;;;;10.62;91.15;101162.10;107674;275;122292;-55
2023/10/02 05:12:07;;;;;;;;;;;;;;;10.68;91.25;101168.61;107707;275;104897;-58
2023/10/02 05:14:52;;;;;;;;;;;;;;;10.77;91.49;101170.32;107950;275;112135;-58
2023/10/02 05:17:44;;;;;;;;;;;;;;;10.86;91.55;101169.65;107698;275;97111;-53
2023/10/02 05:20:26;;;;;;;;;;;;;;;10.93;91.63;101171.83;107670;275;97274;-57
2023/10/02 05:23:03;;;;;;;;;;;;;;;11.03;91.70;101176.88;107676;275;120649;-58
2023/10/02 05:25:42;;;;;;;;;;;;;;;11.10;91.72;101176.91;107689;275;102948;-55
2023/10/02 05:28:24;;;;;;;;;;;;;;;11.18;91.76;101179.65;107683;275;113891;-55
2023/10/02 05:31:00;;;;;;;;;;;;;;;11.25;91.63;101183.53;107672;275;95459;-58
2023/10/02 05:33:40;;;;;;;;;;;;;;;11.35;91.54;101183.73;107777;275;96907;-57
2023/10/02 05:36:21;;;;;;;;;;;;;;;11.45;91.56;101185.41;107649;275;121647;-57
2023/10/02 05:39:27;;;;;;;;;;;;;;;11.52;91.56;101195.03;107716;275;104315;-57
2023/10/02 05:42:13;;;;;;;;;;;;;;;11.64;91.59;101197.58;107633;275;114075;-57
2023/10/02 05:44:55;;;;;;;;;;;;;;;11.79;91.59;101198.36;107632;275;97248;-55
2023/10/02 05:47:35;;;;;;;;;;;;;;;11.91;91.47;101202.84;107681;275;97266;-55
2023/10/02 05:50:10;;;;;;;;;;;;;;;12.03;91.35;101205.17;107710;275;119935;-55
2023/10/02 05:52:48;;;;;;;;;;;;;;;12.12;91.53;101200.40;107714;275;104197;-58
2023/10/02 05:55:25;;;;;;;;;;;;;;;12.24;91.34;101203.73;107724;275;114816;-57
2023/10/02 05:58:00;;;;;;;;;;;;;;;12.33;91.32;101205.36;107655;275;97102;-54
2023/10/02 06:00:38;;;;;;;;;;;;;;;12.40;91.32;101201.79;107677;275;96802;-58
2023/10/02 06:03:22;;;;;;;;;;;;;;;12.50;90.99;101205.49;107821;275;121538;-58
2023/10/02 06:08:49;;;;;;;;;;;;;;;12.63;90.73;101205.79;107748;275;114534;-59
2023/10/02 06:11:26;;;;;;;;;;;;;;;12.69;90.53;101198.86;107732;275;95918;-55
2023/10/02 06:13:57;;;;;;;;;;;;;;;12.75;90.52;101200.25;107680;275;95261;-55
2023/10/02 06:16:30;;;;;;;;;;;;;;;12.83;90.31;101202.21;107678;275;122799;-56
2023/10/02 06:19:01;;;;;;;;;;;;;;;12.85;90.22;101205.34;107662;276;104894;-58
2023/10/02 06:21:45;;;;;;;;;;;;;;;12.90;90.28;101205.12;107562;275;116813;-55
2023/10/02 06:24:27;;;;;;;;;;;;;;;12.90;89.94;101209.13;107677;275;94579;-56
2023/10/02 06:27:07;;;;;;;;;;;;;;;12.92;89.89;101206.73;107783;275;97287;-58
2023/10/02 06:29:44;;;;;;;;;;;;;;;12.92;89.89;101207.03;107802;275;121799;-59
2023/10/02 06:32:24;;;;;;;;;;;;;;;12.95;89.94;101207.98;107688;275;105375;-57
2023/10/02 06:35:04;;;;;;;;;;;;;;;13.00;89.99;101205.86;107686;275;113821;-57
2023/10/02 06:37:40;;;;;;;;;;;;;;;13.06;89.93;101204.64;107761;275;96343;-59
2023/10/02 06:40:14;;;;;;;;;;;;;;;13.12;90.07;101202.83;107748;275;96469;-53
2023/10/02 06:42:50;;;;;;;;;;;;;;;13.23;90.22;101206.56;107665;275;121667;-54
2023/10/02 06:45:29;;;;;;;;;;;;;;;13.32;90.23;101211.09;107739;275;103560;-54
2023/10/02 06:48:06;;;;;;;;;;;;;;;13.42;90.25;101210.15;107632;275;113998;-61
2023/10/02 06:50:39;;;;;;;;;;;;;;;13.58;90.17;101214.56;107650;275;95418;-55
2023/10/02 06:53:11;;;;;;;;;;;;;;;13.74;89.95;101212.38;107460;275;97026;-54
2023/10/02 06:55:58;;;;;;;;;;;;;;;13.89;89.82;101210.82;107646;275;122962;-58
2023/10/02 06:58:46;;;;;;;;;;;;;;;14.06;89.72;101202.66;107668;275;105639;-53
2023/10/02 07:01:32;;;;;;;;;;;;;;;14.25;89.29;101197.73;107740;275;113684;-58
2023/10/02 07:04:12;;;;;;;;;;;;;;;14.38;88.88;101197.96;107643;275;93419;-59
2023/10/02 07:06:44;;;;;;;;;;;;;;;14.45;88.64;101202.80;107744;275;95772;-56
2023/10/02 07:09:24;;;;;;;;;;;;;;;14.58;88.61;101203.30;107688;275;122062;-58
2023/10/02 07:12:08;;;;;;;;;;;;;;;14.68;88.42;101198.11;107653;275;104738;-54
2023/10/02 07:14:42;;;;;;;;;;;;;;;14.79;88.19;101194.42;107644;275;114412;-54
2023/10/02 07:17:16;;;;;;;;;;;;;;;14.87;88.24;101192.45;107775;275;95375;-58
2023/10/02 07:20:00;;;;;;;;;;;;;;;14.97;87.85;101196.75;107694;275;96523;-58
2023/10/02 07:22:51;;;;;;;;;;;;;;;15.08;87.70;101199.34;107456;275;124778;-58
2023/10/02 07:25:24;;;;;;;;;;;;;;;15.16;87.60;101202.05;107680;275;104492;-53
2023/10/02 07:28:03;;;;;;;;;;;;;;;15.24;87.35;101202.58;107679;275;114839;-54
2023/10/02 07:30:41;;;;;;;;;;;;;;;15.34;86.93;101197.58;107637;275;97381;-55
2023/10/02 07:33:13;;;;;;;;;;;;;;;15.45;86.72;101193.91;107610;275;96426;-55
2023/10/02 07:35:52;;;;;;;;;;;;;;;15.60;86.48;101187.75;107668;275;119458;-58
2023/10/02 07:38:31;;;;;;;;;;;;;;;15.76;86.36;101182.30;107662;275;103092;-55
2023/10/02 07:41:07;;;;;;;;;;;;;;;15.91;86.05;101184.31;107493;275;113419;-54
2023/10/02 07:43:40;;;;;;;;;;;;;;;16.10;85.71;101190.11;107683;275;95179;-53
2023/10/02 07:46:15;;;;;;;;;;;;;;;16.21;85.33;101187.46;107801;275;96318;-59
2023/10/02 07:48:57;;;;;;;;;;;;;;;16.37;85.05;101192.23;107942;275;121394;-58
2023/10/02 07:51:36;;;;;;;;;;;;;;;16.59;84.75;101194.89;107600;277;105299;-58
2023/10/02 07:54:16;;;;;;;;;;;;;;;16.80;84.56;101195.22;108017;275;112890;-58
2023/10/02 07:56:54;;;;;;;;;;;;;;;17.04;84.15;101194.57;108039;275;93103;-58
2023/10/02 07:59:31;;;;;;;;;;;;;;;17.46;83.73;101189.33;107787;275;97512;-58
2023/10/02 08:02:21;;;;;;;;;;;;;;;17.95;83.25;101186.91;107681;275;120204;-53
2023/10/02 08:04:53;;;;;;;;;;;;;;;18.07;81.98;101188.91;107706;275;105011;-58
2023/10/02 08:07:25;;;;;;;;;;;;;;;18.12;81.44;101187.41;107984;275;115690;-58
2023/10/02 08:10:00;;;;;;;;;;;;;;;18.16;80.82;101186.03;107843;275;95507;-59
2023/10/02 08:12:39;;;;;;;;;;;;;;;18.15;80.25;101190.45;107669;275;96214;-53
2023/10/02 08:18:14;;;;;;;;;;;;;;;18.35;79.37;101194.29;107636;275;105397;-55
2023/10/02 08:20:55;;;;;;;;;;;;;;;18.48;78.56;101198.77;107622;275;114912;-57
2023/10/02 08:23:27;;;;;;;;;;;;;;;18.46;78.17;101194.77;107678;275;92957;-57
2023/10/02 08:26:06;;;;;;;;;;;;;;;18.47;78.02;101199.02;107695;275;97218;-56
2023/10/02 08:28:38;;;;;;;;;;;;;;;18.48;77.15;101199.31;107663;275;121651;-57
2023/10/02 08:31:15;;;;;;;;;;;;;;;18.47;76.92;101199.48;107722;275;105250;-54
2023/10/02 08:33:51;;;;;;;;;;;;;;;18.49;76.99;101204.85;107656;275;113463;-55
2023/10/02 08:36:28;;;;;;;;;;;;;;;18.59;76.84;101209.64;107712;275;93369;-56
2023/10/02 08:39:02;;;;;;;;;;;;;;;18.62;76.25;101201.23;107549;275;95016;-56
2023/10/02 08:41:45;;;;;;;;;;;;;;;18.67;75.97;101204.69;107935;275;119991;-58
2023/10/02 08:44:22;;;;;;;;;;;;;;;18.72;75.76;101205.79;108087;275;106902;-62
2023/10/02 08:46:59;;;;;;;;;;;;;;;18.80;75.71;101209.38;107719;275;112948;-60
2023/10/02 08:49:39;;;;;;;;;;;;;;;18.84;75.05;101206.12;107628;275;95376;-61
2023/10/02 08:52:16;;;;;;;;;;;;;;;18.89;74.84;101208.92;107739;275;97538;-56
2023/10/02 08:54:52;;;;;;;;;;;;;;;18.86;74.19;101206.13;107803;275;120878;-56
2023/10/02 08:57:31;;;;;;;;;;;;;;;18.86;73.85;101208.33;107727;275;106277;-61
2023/10/02 09:00:13;;;;;;;;;;;;;;;18.86;73.44;101207.98;107682;275;113130;-61
2023/10/02 09:02:54;;;;;;;;;;;;;;;18.91;73.26;101202.89;107727;275;94359;-60
2023/10/02 09:05:36;;;;;;;;;;;;;;;19.05;73.18;101196.90;107695;275;96853;-60
2023/10/02 09:08:16;;;;;;;;;;;;;;;19.27;73.30;101196.67;107677;275;121613;-60
2023/10/02 09:10:58;;;;;;;;;;;;;;;19.47;72.77;101199.40;107667;275;106208;-55
2023/10/02 09:13:34;;;;;;;;;;;;;;;19.62;72.72;101198.80;107517;275;117744;-56
2023/10/02 09:16:14;;;;;;;;;;;;;;;19.79;72.59;101202.22;107649;275;94322;-61
2023/10/02 09:19:07;;;;;;;;;;;;;;;19.92;71.88;101194.20;107621;275;95469;-60
2023/10/02 09:21:40;;;;;;;;;;;;;;;20.12;71.23;101190.47;107722;275;119245;-55
2023/10/02 09:24:23;;;;;;;;;;;;;;;20.33;71.11;101183.99;107687;275;104008;-55
2023/10/02 09:27:20;;;;;;;;;;;;;;;20.60;71.11;101178.88;107673;275;115815;-58
2023/10/02 09:32:54;;;;;;;;;;;;;;;21.10;69.20;101180.95;107624;275;96109;-55
2023/10/02 09:35:32;;;;;;;;;;;;;;;21.21;68.27;101182.27;107659;275;121163;-59
2023/10/02 09:38:10;;;;;;;;;;;;;;;21.37;67.96;101177.34;107733;275;104269;-59
2023/10/02 09:40:58;;;;;;;;;;;;;;;21.46;67.14;101173.65;107747;275;115196;-55
2023/10/02 09:43:31;;;;;;;;;;;;;;;21.52;66.89;101170.75;107691;275;93638;-53
2023/10/02 09:49:10;;;;;;;;;;;;;;;21.54;66.02;101169.36;107612;269;120831;-55
2023/10/02 09:52:09;;;;;;;;;;;;;;;21.57;65.47;101166.84;107691;275;105291;-53
2023/10/02 09:55:03;;;;;;;;;;;;;;;21.45;64.30;101162.34;107662;275;113587;-52
2023/10/02 09:57:49;;;;;;;;;;;;;;;21.26;64.72;101161.38;107638;275;95119;-52
2023/10/02 10:00:40;;;;;;;;;;;;;;;21.20;64.31;101160.73;107611;275;97671;-60
2023/10/02 10:03:32;;;;;;;;;;;;;;;21.17;64.57;101154.58;107619;275;120996;-58
2023/10/02 10:06:29;;;;;;;;;;;;;;;21.16;64.00;101156.31;107463;275;104120;-56
2023/10/02 10:15:31;;;;;;;;;;;;;;;21.09;63.33;101159.84;107577;275;96915;-56
2023/10/02 10:18:14;;;;;;;;;;;;;;;21.09;63.36;101158.69;107589;275;122377;-56
2023/10/02 10:20:47;;;;;;;;;;;;;;;21.12;63.10;101151.49;107660;275;105166;-54
2023/10/02 10:23:31;;;;;;;;;;;;;;;21.12;62.64;101149.80;107673;275;113092;-54
2023/10/02 10:26:08;;;;;;;;;;;;;;;21.12;62.29;101144.73;107723;275;94883;-54
2023/10/02 10:28:53;;;;;;;;;;;;;;;21.17;62.74;101140.06;107709;275;97152;-54
2023/10/02 10:31:33;;;;;;;;;;;;;;;21.22;62.50;101131.05;107872;275;121672;-59
2023/10/02 10:34:12;;;;;;;;;;;;;;;21.27;61.98;101131.31;107879;275;104689;-59
2023/10/02 10:36:46;;;;;;;;;;;;;;;21.32;61.66;101132.42;107855;275;112910;-54
2023/10/02 10:39:49;;;;;;;;;;;;;;;21.30;60.89;101130.96;107703;275;93951;-54
2023/10/02 10:42:26;;;;;;;;;;;;;;;21.31;60.71;101130.58;107703;275;97552;-58
2023/10/02 10:45:07;;;;;;;;;;;;;;;21.33;60.59;101131.89;107619;275;121929;-57
2023/10/02 10:47:42;;;;;;;;;;;;;;;21.34;60.36;101132.75;107788;275;106110;-53
2023/10/02 10:50:30;;;;;;;;;;;;;;;21.40;60.58;101129.08;107733;275;112213;-56
2023/10/02 10:53:26;;;;;;;;;;;;;;;21.45;60.47;101124.73;107682;275;94353;-56
2023/10/02 10:55:59;;;;;;;;;;;;;;;21.50;60.05;101120.86;107661;275;97454;-56
2023/10/02 10:58:37;;;;;;;;;;;;;;;21.50;59.61;101122.14;107695;275;121927;-56
2023/10/02 11:01:16;;;;;;;;;;;;;;;21.47;59.19;101123.29;107677;275;105404;-54
2023/10/02 11:03:54;;;;;;;;;;;;;;;21.40;59.21;101118.26;107666;275;114345;-55
2023/10/02 11:06:27;;;;;;;;;;;;;;;21.41;59.35;101118.11;107795;275;94465;-58
2023/10/02 11:09:16;;;;;;;;;;;;;;;21.45;59.00;101114.23;107739;277;98468;-60
2023/10/02 11:11:52;;;;;;;;;;;;;;;21.55;58.77;101114.60;107716;275;121724;-54
2023/10/02 11:14:36;;;;;;;;;;;;;;;21.67;58.51;101110.39;107671;275;105015;-55
2023/10/02 11:17:32;;;;;;;;;;;;;;;21.77;58.28;101108.98;107694;275;114052;-54
2023/10/02 11:20:09;;;;;;;;;;;;;;;21.89;57.69;101100.16;107651;275;94405;-56
2023/10/02 11:23:03;;;;;;;;;;;;;;;22.01;57.57;101097.55;107653;275;97797;-55
2023/10/02 11:25:40;;;;;;;;;;;;;;;22.10;57.67;101093.45;107676;275;121959;-54
2023/10/02 11:28:29;;;;;;;;;;;;;;;22.12;57.51;101084.86;107703;275;105526;-52
2023/10/02 11:31:29;;;;;;;;;;;;;;;22.12;57.23;101088.71;107691;275;114833;-52
2023/10/02 11:34:05;;;;;;;;;;;;;;;22.09;56.90;101087.16;107709;275;94887;-53
2023/10/02 11:36:39;;;;;;;;;;;;;;;22.06;56.63;101095.09;107716;275;98162;-56
2023/10/02 11:39:16;;;;;;;;;;;;;;;22.00;55.78;101100.73;107697;275;122826;-57
2023/10/02 11:41:55;;;;;;;;;;;;;;;21.85;55.82;101097.08;107704;275;105786;-57
2023/10/02 11:44:33;;;;;;;;;;;;;;;21.84;56.08;101094.83;107677;275;114242;-56
2023/10/02 11:47:09;;;;;;;;;;;;;;;21.85;55.72;101091.38;107643;275;94069;-59
2023/10/02 11:49:46;;;;;;;;;;;;;;;21.84;55.23;101089.54;107862;275;95196;-59
2023/10/02 11:52:23;;;;;;;;;;;;;;;21.78;55.50;101089.54;107684;275;121545;-56
2023/10/02 11:54:58;;;;;;;;;;;;;;;21.81;55.76;101082.50;107639;275;104139;-56
2023/10/02 11:57:37;;;;;;;;;;;;;;;21.82;55.83;101077.69;107059;275;703555;-54
2023/10/02 12:00:12;;;;;;;;;;;;;;;21.82;55.54;101072.73;107531;275;95401;-53
2023/10/02 12:02:51;;;;;;;;;;;;;;;21.83;55.25;101075.66;107676;275;97294;-54
2023/10/02 12:05:30;;;;;;;;;;;;;;;21.83;55.39;101076.36;107652;275;121903;-55
2023/10/02 12:08:05;;;;;;;;;;;;;;;21.83;55.78;101074.57;107677;275;105832;-54
2023/10/02 12:10:41;;;;;;;;;;;;;;;21.86;55.77;101074.77;107704;275;115290;-56
2023/10/02 12:13:13;;;;;;;;;;;;;;;21.88;55.98;101071.27;107645;275;94468;-57
2023/10/02 12:15:49;;;;;;;;;;;;;;;21.89;55.73;101072.22;107675;275;97671;-53
2023/10/02 12:18:22;;;;;;;;;;;;;;;21.88;55.46;101069.55;107649;275;122496;-53
2023/10/02 12:20:57;;;;;;;;;;;;;;;21.84;55.47;101066.54;107773;275;105184;-58
2023/10/02 12:23:29;;;;;;;;;;;;;;;21.82;55.42;101059.46;107794;275;112777;-57
2023/10/02 12:26:00;;;;;;;;;;;;;;;21.82;55.49;101058.31;107798;275;94297;-55
2023/10/02 12:28:36;;;;;;;;;;;;;;;21.85;55.66;101052.14;107683;275;98287;-55
2023/10/02 12:31:12;;;;;;;;;;;;;;;21.88;55.97;101048.76;107724;275;122253;-58
2023/10/02 12:33:46;;;;;;;;;;;;;;;21.89;55.66;101046.58;107640;275;109136;-58
2023/10/02 12:36:21;;;;;;;;;;;;;;;21.86;55.73;101043.66;107738;275;113729;-53
2023/10/02 12:38:58;;;;;;;;;;;;;;;21.80;55.64;101040.55;107646;275;92926;-53
2023/10/02 12:41:32;;;;;;;;;;;;;;;21.68;55.41;101039.08;107793;275;98187;-58
2023/10/02 12:44:07;;;;;;;;;;;;;;;21.60;55.75;101042.43;107975;275;121561;-58
2023/10/02 12:46:43;;;;;;;;;;;;;;;21.56;55.75;101046.70;107875;275;105851;-59
2023/10/02 12:49:19;;;;;;;;;;;;;;;21.55;55.86;101048.13;107920;275;114444;-58
2023/10/02 12:51:57;;;;;;;;;;;;;;;21.52;55.90;101041.02;107744;275;95445;-54
2023/10/02 12:54:38;;;;;;;;;;;;;;;21.40;56.11;101036.27;107665;275;97645;-53
2023/10/02 12:57:20;;;;;;;;;;;;;;;21.36;56.31;101030.88;108002;275;120681;-59
2023/10/02 13:00:00;;;;;;;;;;;;;;;21.31;56.17;101029.05;108011;275;104821;-58
2023/10/02 13:02:33;;;;;;;;;;;;;;;21.25;56.26;101028.71;107544;275;116385;-55
2023/10/02 13:05:04;;;;;;;;;;;;;;;21.26;56.37;101028.52;107700;275;94176;-55
2023/10/02 13:07:35;;;;;;;;;;;;;;;21.24;56.08;101025.67;107732;275;97664;-57
2023/10/02 13:10:18;;;;;;;;;;;;;;;21.22;56.33;101021.55;107831;275;119918;-58
2023/10/02 13:12:50;;;;;;;;;;;;;;;21.18;56.57;101021.98;108100;275;104592;-58
2023/10/02 13:15:27;;;;;;;;;;;;;;;21.15;56.44;101023.18;108183;275;113135;-59
2023/10/02 13:18:12;;;;;;;;;;;;;;;21.12;56.71;101027.30;108129;275;93610;-59
2023/10/02 13:20:44;;;;;;;;;;;;;;;21.05;56.89;101024.71;108051;275;96405;-54
2023/10/02 13:23:24;;;;;;;;;;;;;;;21.01;56.90;101020.72;107645;275;121228;-55
2023/10/02 13:25:57;;;;;;;;;;;;;;;20.96;57.11;101006.54;107872;275;105519;-59
2023/10/02 13:28:34;;;;;;;;;;;;;;;20.91;56.98;101002.21;108117;275;114280;-58
2023/10/02 13:31:17;;;;;;;;;;;;;;;20.90;57.16;101006.26;107995;275;93154;-56
2023/10/02 13:33:55;;;;;;;;;;;;;;;20.90;57.03;101006.76;107589;275;98059;-56
2023/10/02 13:36:27;;;;;;;;;;;;;;;20.89;57.02;101003.98;107632;275;121414;-57
2023/10/02 13:39:04;;;;;;;;;;;;;;;20.90;57.25;101000.87;107654;277;104586;-55
2023/10/02 13:41:38;;;;;;;;;;;;;;;20.90;57.47;101001.02;107643;275;114104;-55
2023/10/02 13:44:26;;;;;;;;;;;;;;;20.92;57.41;100999.27;107604;275;93659;-57
2023/10/02 13:47:08;;;;;;;;;;;;;;;20.95;57.41;101000.63;107641;275;97159;-57
2023/10/02 13:49:39;;;;;;;;;;;;;;;20.98;57.03;100998.34;107660;275;122050;-56
2023/10/02 13:52:21;;;;;;;;;;;;;;;21.04;57.08;100998.64;107652;275;104423;-56
2023/10/02 13:54:57;;;;;;;;;;;;;;;21.08;56.97;100994.62;107659;275;113876;-57
2023/10/02 14:00:53;;;;;;;;;;;;;;;21.18;57.21;100988.61;107863;275;97394;-56
2023/10/02 14:03:38;;;;;;;;;;;;;;;21.20;57.22;100987.21;107913;274;122273;-55
2023/10/02 14:06:23;;;;;;;;;;;;;;;21.24;57.52;100990.39;107921;275;105821;-55
2023/10/02 14:08:58;;;;;;;;;;;;;;;21.27;57.59;100989.53;107896;275;114039;-55
2023/10/02 14:11:33;;;;;;;;;;;;;;;21.27;57.73;100989.67;107663;275;84507;-58
2023/10/02 14:14:08;;;;;;;;;;;;;;;21.29;58.00;100984.10;107957;275;96969;-55
2023/10/02 14:16:49;;;;;;;;;;;;;;;21.29;57.99;100982.23;108018;274;120183;-57